TUI6KN DTTJ-EDDL
Flight info
| Callsign | TUI6KN |
|---|---|
| Flight time | N/A |
| Altitude | 38000 |
| Route | KBIRA1A KBIRA V334 NEDOS UZ153 TBK UG869 DOPEL DCT DEC DCT GIGGI DCT POZZO DCT RUGOX DCT MADKA DCT AJO DCT OMEDA DCT MERLU DCT PIGOS DCT BARSO DCT IRMAR DCT KINES DCT VANAS DCT MOBLO DCT UBIMA DCT GILIR DCT PENDU DCT IXILU DCT GIVOR DCT SORAL DCT IBERA DCT DIK N853 ARCKY T853 NVO T857 BIKMU BIKMU1A |
| Aircraft | B738/M-SDE2E3FGHIRWXY/LB1 |
Departure
| Time | 2026-04-23 18:42 |
|---|---|
| Airport | Djerba Zarzis International Airport (DTTJ) |
Arrival
| Time | N/A |
|---|---|
| Airport | Düsseldorf Airport (EDDL) |
| Time | Latitude | Longitude | Altitude | Speed | Heading |
|---|---|---|---|---|---|
| 2026-04-23 18:29 | 33.87314 | 10.77460 | 26 ft | 0 kts | 209° |
| 2026-04-23 18:35 | 33.87316 | 10.77461 | 26 ft | 3 kts | 209° |
| 2026-04-23 18:35 | 33.87339 | 10.77477 | 26 ft | 4 kts | 209° |
| 2026-04-23 18:36 | 33.87358 | 10.77489 | 29 ft | 4 kts | 215° |
| 2026-04-23 18:36 | 33.87376 | 10.77512 | 26 ft | 4 kts | 247° |
| 2026-04-23 18:36 | 33.87382 | 10.77543 | 25 ft | 4 kts | 267° |
| 2026-04-23 18:36 | 33.87383 | 10.77551 | 25 ft | 0 kts | 268° |
| 2026-04-23 18:39 | 33.87382 | 10.77536 | 29 ft | 5 kts | 268° |
| 2026-04-23 18:39 | 33.87380 | 10.77467 | 26 ft | 12 kts | 268° |
| 2026-04-23 18:39 | 33.87377 | 10.77341 | 26 ft | 18 kts | 267° |
| 2026-04-23 18:40 | 33.87364 | 10.77163 | 26 ft | 24 kts | 268° |
| 2026-04-23 18:40 | 33.87359 | 10.76966 | 27 ft | 23 kts | 268° |
| 2026-04-23 18:40 | 33.87353 | 10.76775 | 22 ft | 23 kts | 268° |
| 2026-04-23 18:40 | 33.87347 | 10.76588 | 19 ft | 22 kts | 268° |
| 2026-04-23 18:41 | 33.87342 | 10.76406 | 20 ft | 21 kts | 268° |
| 2026-04-23 18:41 | 33.87338 | 10.76230 | 17 ft | 21 kts | 269° |
| 2026-04-23 18:41 | 33.87363 | 10.76067 | 16 ft | 20 kts | 316° |
| 2026-04-23 18:41 | 33.87478 | 10.76058 | 20 ft | 10 kts | 5° |
| 2026-04-23 18:42 | 33.87510 | 10.76148 | 22 ft | 31 kts | 86° |
| 2026-04-23 18:42 | 33.87521 | 10.76716 | 20 ft | 103 kts | 89° |
| 2026-04-23 18:42 | 33.87558 | 10.77818 | 64 ft | 155 kts | 90° |
| 2026-04-23 18:42 | 33.87625 | 10.79128 | 736 ft | 157 kts | 83° |
| 2026-04-23 18:43 | 33.87876 | 10.80370 | 1580 ft | 151 kts | 57° |
| 2026-04-23 18:43 | 33.88601 | 10.81362 | 2096 ft | 174 kts | 35° |
| 2026-04-23 18:43 | 33.89842 | 10.81816 | 2462 ft | 201 kts | 2° |
| 2026-04-23 18:43 | 33.91183 | 10.81261 | 3021 ft | 214 kts | 323° |
| 2026-04-23 18:44 | 33.92109 | 10.79843 | 3624 ft | 223 kts | 308° |
| 2026-04-23 18:44 | 33.92984 | 10.78285 | 4307 ft | 227 kts | 307° |